createdAt,value
2023-07-24T00:01:56.537Z,7.70
2023-07-24T00:04:23.835Z,9.20
2023-07-24T00:06:51.185Z,7.70
2023-07-24T00:09:18.686Z,10.50
2023-07-24T00:11:46.154Z,9.33
2023-07-24T00:14:13.911Z,7.97
2023-07-24T00:16:41.478Z,7.40
2023-07-24T00:19:09.128Z,7.25
2023-07-24T00:21:36.775Z,7.65
2023-07-24T00:24:04.276Z,7.03
2023-07-24T00:26:31.849Z,7.60
2023-07-24T00:29:00.795Z,7.93
2023-07-24T00:31:28.076Z,7.65
2023-07-24T00:33:55.500Z,8.23
2023-07-24T00:36:23.272Z,9.83
2023-07-24T00:38:50.701Z,9.00
2023-07-24T00:41:18.057Z,7.13
2023-07-24T00:43:45.529Z,6.35
2023-07-24T00:46:12.913Z,8.38
2023-07-24T00:48:40.422Z,6.73
2023-07-24T00:51:08.801Z,12.70
2023-07-24T00:53:36.167Z,9.30
2023-07-24T00:56:03.528Z,11.25
2023-07-24T00:58:31.158Z,8.68
2023-07-24T01:00:58.629Z,9.20
2023-07-24T01:03:32.301Z,11.80
2023-07-24T01:06:00.971Z,8.55
2023-07-24T01:08:28.710Z,11.48
2023-07-24T01:11:03.560Z,8.10
2023-07-24T01:13:32.732Z,10.70
2023-07-24T01:16:02.120Z,10.25
2023-07-24T01:18:29.938Z,9.68
2023-07-24T01:20:58.300Z,9.10
2023-07-24T01:23:38.066Z,9.25
2023-07-24T01:26:06.270Z,10.40
2023-07-24T01:28:33.650Z,10.30
2023-07-24T01:31:01.095Z,8.02
2023-07-24T01:33:28.503Z,7.95
2023-07-24T01:35:58.201Z,9.23
2023-07-24T01:38:26.690Z,9.47
2023-07-24T01:40:54.901Z,9.25
2023-07-24T01:43:23.093Z,8.18
2023-07-24T01:45:50.527Z,10.27
2023-07-24T01:48:19.405Z,8.85
2023-07-24T01:50:46.915Z,10.30
2023-07-24T01:53:14.292Z,9.73
2023-07-24T01:55:41.957Z,8.75
2023-07-24T01:58:10.141Z,10.15
2023-07-24T02:00:40.621Z,7.55
2023-07-24T02:03:08.221Z,8.43
2023-07-24T02:05:36.741Z,9.10
2023-07-24T02:08:04.346Z,9.43
2023-07-24T02:10:31.780Z,10.15
2023-07-24T02:12:59.134Z,12.27
2023-07-24T02:15:26.527Z,9.03
2023-07-24T02:17:54.550Z,8.30
2023-07-24T02:20:22.366Z,8.63
2023-07-24T02:22:50.464Z,8.85
2023-07-24T02:25:18.004Z,10.30
2023-07-24T02:27:45.338Z,8.73
2023-07-24T02:30:12.895Z,10.25
2023-07-24T02:32:40.417Z,12.20
2023-07-24T02:35:08.277Z,8.63
2023-07-24T02:37:35.719Z,9.13
2023-07-24T02:40:03.348Z,9.40
2023-07-24T02:42:30.858Z,7.72
2023-07-24T02:44:58.589Z,7.75
2023-07-24T02:47:26.073Z,9.13
2023-07-24T02:49:53.774Z,9.35
2023-07-24T02:52:21.093Z,8.27
2023-07-24T02:54:48.684Z,9.57
2023-07-24T02:57:16.047Z,10.40
2023-07-24T02:59:44.311Z,9.65
2023-07-24T03:02:12.439Z,9.27
2023-07-24T03:04:39.915Z,10.00
2023-07-24T03:07:07.232Z,10.38
2023-07-24T03:09:36.374Z,9.73
2023-07-24T03:12:03.849Z,8.20
2023-07-24T03:14:31.484Z,10.55
2023-07-24T03:17:00.611Z,10.10
2023-07-24T03:19:29.707Z,9.50
2023-07-24T03:21:57.524Z,9.30
2023-07-24T03:24:24.963Z,9.57
2023-07-24T03:26:52.603Z,8.98
2023-07-24T03:29:21.821Z,8.30
2023-07-24T03:31:49.224Z,11.05
2023-07-24T03:34:20.107Z,9.75
2023-07-24T03:36:47.462Z,11.75
2023-07-24T03:39:15.091Z,10.70
2023-07-24T03:41:42.950Z,11.73
2023-07-24T03:44:10.317Z,15.10
2023-07-24T03:46:37.690Z,10.55
2023-07-24T03:49:05.053Z,12.10
2023-07-24T03:51:33.467Z,10.20
2023-07-24T03:54:00.792Z,11.03
2023-07-24T03:56:31.826Z,8.63
2023-07-24T03:59:00.858Z,11.48
2023-07-24T04:01:28.428Z,11.65
2023-07-24T04:03:56.022Z,11.10
2023-07-24T04:06:24.578Z,10.03
2023-07-24T04:08:52.339Z,11.93
2023-07-24T04:11:19.888Z,10.23
2023-07-24T04:13:47.250Z,12.43
2023-07-24T04:16:14.588Z,11.93
2023-07-24T04:18:41.931Z,9.97
2023-07-24T04:21:09.374Z,11.38
2023-07-24T04:23:38.186Z,11.95
2023-07-24T04:26:05.961Z,11.35
2023-07-24T04:28:33.390Z,11.38
2023-07-24T04:31:02.726Z,14.63
2023-07-24T04:33:30.290Z,14.20
2023-07-24T04:35:59.029Z,11.13
2023-07-24T04:38:27.038Z,12.82
2023-07-24T04:40:54.436Z,11.77
2023-07-24T04:43:21.805Z,12.97
2023-07-24T04:45:49.268Z,13.88
2023-07-24T04:48:16.610Z,12.20
2023-07-24T04:50:43.970Z,12.02
2023-07-24T04:53:11.299Z,12.95
2023-07-24T04:55:38.625Z,14.23
2023-07-24T04:58:06.603Z,11.95
2023-07-24T05:00:33.996Z,11.60
2023-07-24T05:03:01.497Z,12.80
2023-07-24T05:05:30.641Z,14.68
2023-07-24T05:07:59.338Z,11.17
2023-07-24T05:10:26.806Z,14.10
2023-07-24T05:12:57.727Z,12.77
2023-07-24T05:15:25.075Z,13.35
2023-07-24T05:17:52.425Z,13.00
2023-07-24T05:20:19.752Z,13.53
2023-07-24T05:22:47.033Z,11.68
2023-07-24T05:25:14.389Z,12.23
2023-07-24T05:27:42.974Z,11.60
2023-07-24T05:30:11.787Z,12.60
2023-07-24T05:32:39.360Z,10.53
2023-07-24T05:35:07.260Z,13.10
2023-07-24T05:37:34.690Z,12.02
2023-07-24T05:40:02.995Z,9.98
2023-07-24T05:42:30.435Z,12.80
2023-07-24T05:44:57.796Z,10.97
2023-07-24T05:47:25.185Z,10.88
2023-07-24T05:49:52.583Z,11.20
2023-07-24T05:52:19.928Z,8.05
2023-07-24T05:54:47.287Z,12.95
2023-07-24T05:57:14.590Z,10.47
2023-07-24T05:59:41.922Z,7.72
2023-07-24T06:02:10.358Z,8.70
2023-07-24T06:04:38.106Z,9.20
2023-07-24T06:07:05.563Z,9.40
2023-07-24T06:09:32.849Z,7.70
2023-07-24T06:12:00.166Z,8.82
2023-07-24T06:14:27.522Z,7.60
2023-07-24T06:16:54.982Z,8.90
2023-07-24T06:19:22.648Z,9.15
2023-07-24T06:21:49.978Z,9.10
2023-07-24T06:24:17.463Z,9.45
2023-07-24T06:26:44.888Z,10.65
2023-07-24T06:29:12.389Z,10.23
2023-07-24T06:31:39.929Z,9.43
2023-07-24T06:34:07.292Z,9.33
2023-07-24T06:36:36.813Z,11.32
2023-07-24T06:39:04.344Z,9.57
2023-07-24T06:41:31.661Z,10.13
2023-07-24T06:43:58.939Z,9.18
2023-07-24T06:46:26.266Z,10.40
2023-07-24T06:48:53.571Z,8.30
2023-07-24T06:51:20.941Z,8.57
2023-07-24T06:53:48.542Z,9.73
2023-07-24T06:56:15.874Z,9.38
2023-07-24T06:58:43.203Z,9.10
2023-07-24T07:01:10.606Z,8.82
2023-07-24T07:03:37.986Z,9.57
2023-07-24T07:06:05.444Z,9.77
2023-07-24T07:08:32.969Z,9.13
2023-07-24T07:11:01.087Z,9.03
2023-07-24T07:13:29.236Z,10.23
2023-07-24T07:15:56.770Z,7.90
2023-07-24T07:18:24.080Z,10.15
2023-07-24T07:20:53.293Z,10.52
2023-07-24T07:23:21.233Z,8.80
2023-07-24T07:25:48.678Z,8.25
2023-07-24T07:28:16.380Z,9.98
2023-07-24T07:30:45.953Z,11.95
2023-07-24T07:33:13.500Z,9.98
2023-07-24T07:35:40.854Z,10.47
2023-07-24T07:38:08.156Z,9.30
2023-07-24T07:40:35.436Z,9.95
2023-07-24T07:43:02.789Z,9.30
2023-07-24T07:45:30.201Z,10.15
2023-07-24T07:47:57.895Z,10.37
2023-07-24T07:50:25.580Z,10.77
2023-07-24T07:52:56.681Z,10.93
2023-07-24T07:55:24.073Z,11.38
2023-07-24T07:57:51.418Z,9.70
2023-07-24T08:00:19.220Z,10.10
2023-07-24T08:02:47.052Z,12.57
2023-07-24T08:05:20.210Z,11.65
2023-07-24T08:07:48.808Z,12.05
2023-07-24T08:10:17.851Z,11.77
2023-07-24T08:12:45.570Z,10.10
2023-07-24T08:15:12.967Z,10.57
2023-07-24T08:17:40.608Z,11.00
2023-07-24T08:20:08.321Z,11.77
2023-07-24T08:22:36.646Z,11.18
2023-07-24T08:25:04.621Z,13.50
2023-07-24T08:27:34.747Z,11.95
2023-07-24T08:30:07.653Z,16.45
2023-07-24T08:32:35.139Z,11.43
2023-07-24T08:35:02.594Z,10.50
2023-07-24T08:37:29.903Z,25.93
2023-07-24T08:39:57.192Z,11.00
2023-07-24T08:42:24.626Z,13.52
2023-07-24T08:44:51.947Z,12.68
2023-07-24T08:47:19.305Z,14.82
2023-07-24T08:49:46.723Z,11.87
2023-07-24T08:52:26.896Z,10.77
2023-07-24T08:55:02.118Z,11.95
2023-07-24T08:57:29.411Z,11.63
2023-07-24T08:59:56.717Z,12.35
2023-07-24T09:02:24.128Z,13.20
2023-07-24T09:04:51.507Z,11.90
2023-07-24T09:07:20.400Z,11.70
2023-07-24T09:09:50.323Z,12.13
2023-07-24T09:12:17.955Z,10.90
2023-07-24T09:14:46.439Z,12.27
2023-07-24T09:17:13.842Z,14.18
2023-07-24T09:19:41.337Z,14.45
2023-07-24T09:22:16.021Z,13.93
2023-07-24T09:24:53.468Z,11.93
2023-07-24T09:27:21.168Z,16.00
2023-07-24T09:29:48.620Z,13.35
2023-07-24T09:32:22.830Z,13.98
2023-07-24T09:34:55.522Z,13.93
2023-07-24T09:37:35.856Z,14.55
2023-07-24T09:40:06.560Z,12.50
2023-07-24T09:42:38.896Z,14.13
2023-07-24T09:45:12.489Z,13.43
2023-07-24T09:50:11.181Z,12.52
2023-07-24T09:52:39.198Z,14.67
2023-07-24T09:55:12.553Z,12.45
2023-07-24T09:57:43.843Z,12.73
2023-07-24T10:00:12.754Z,12.68
2023-07-24T10:02:40.380Z,13.38
2023-07-24T10:05:07.838Z,13.70
2023-07-24T10:07:35.130Z,11.85
2023-07-24T10:10:02.694Z,14.48
2023-07-24T10:12:31.595Z,14.85
2023-07-24T10:14:59.088Z,13.23
2023-07-24T10:17:39.916Z,13.17
2023-07-24T10:20:13.130Z,13.50
2023-07-24T10:22:43.763Z,12.98
2023-07-24T10:25:12.464Z,13.48
2023-07-24T10:27:47.605Z,14.05
2023-07-24T10:30:32.015Z,13.13
2023-07-24T10:33:06.036Z,14.18
2023-07-24T10:35:50.374Z,12.75
2023-07-24T10:38:18.109Z,13.43
2023-07-24T10:40:51.692Z,13.27
2023-07-24T10:43:19.856Z,13.70
2023-07-24T10:45:47.231Z,14.68
2023-07-24T10:48:14.701Z,14.02
2023-07-24T10:50:43.709Z,14.40
2023-07-24T10:53:12.041Z,14.52
2023-07-24T10:55:39.547Z,14.57
2023-07-24T10:58:07.308Z,15.55
2023-07-24T11:00:35.466Z,12.85
2023-07-24T11:03:02.970Z,14.20
2023-07-24T11:05:32.611Z,14.57
2023-07-24T11:07:59.977Z,14.70
2023-07-24T11:10:28.260Z,14.20
2023-07-24T11:12:55.683Z,14.95
2023-07-24T11:15:29.308Z,15.48
2023-07-24T11:17:56.877Z,18.73
2023-07-24T11:20:24.355Z,17.10
2023-07-24T11:22:54.663Z,18.40
2023-07-24T11:25:22.142Z,16.20
2023-07-24T11:27:52.496Z,16.58
2023-07-24T11:30:23.282Z,17.73
2023-07-24T11:32:50.814Z,14.53
2023-07-24T11:35:18.421Z,14.57
2023-07-24T11:37:45.979Z,17.40
2023-07-24T11:40:16.031Z,14.35
2023-07-24T11:42:46.420Z,14.15
2023-07-24T11:45:13.878Z,14.37
2023-07-24T11:47:48.925Z,15.32
2023-07-24T11:50:17.392Z,15.88
2023-07-24T11:52:46.313Z,15.57
2023-07-24T11:55:18.681Z,16.13
2023-07-24T11:58:01.966Z,16.27
2023-07-24T12:00:29.520Z,18.90
2023-07-24T12:03:01.241Z,16.50
2023-07-24T12:05:29.042Z,15.65
2023-07-24T12:07:56.709Z,16.40
2023-07-24T12:10:31.328Z,15.53
2023-07-24T12:13:02.163Z,15.75
2023-07-24T12:15:36.545Z,15.90
2023-07-24T12:18:05.426Z,15.55
2023-07-24T12:20:33.065Z,17.88
2023-07-24T12:23:00.523Z,16.13
2023-07-24T12:25:27.907Z,17.65
2023-07-24T12:27:55.248Z,16.35
2023-07-24T12:30:22.613Z,15.63
2023-07-24T12:32:50.063Z,17.40
2023-07-24T12:35:18.286Z,16.37
2023-07-24T12:37:46.854Z,16.60
2023-07-24T12:40:14.621Z,16.45
2023-07-24T12:42:42.018Z,17.50
2023-07-24T12:45:11.012Z,18.35
2023-07-24T12:47:38.818Z,17.70
2023-07-24T12:50:08.328Z,18.38
2023-07-24T12:52:36.181Z,16.58
2023-07-24T12:55:04.103Z,17.80
2023-07-24T12:57:31.509Z,17.38
2023-07-24T12:59:58.917Z,18.63
2023-07-24T13:02:26.387Z,18.83
2023-07-24T13:04:53.833Z,15.75
2023-07-24T13:07:21.520Z,18.40
2023-07-24T13:09:49.661Z,16.48
2023-07-24T13:12:17.172Z,19.03
2023-07-24T13:14:44.666Z,17.38
2023-07-24T13:17:14.287Z,18.20
2023-07-24T13:19:41.869Z,18.08
2023-07-24T13:22:09.355Z,18.50
2023-07-24T13:24:39.534Z,17.37
2023-07-24T13:27:08.434Z,20.35
2023-07-24T13:29:36.180Z,17.38
2023-07-24T13:32:03.627Z,19.10
2023-07-24T13:34:30.940Z,19.95
2023-07-24T13:36:58.402Z,19.50
2023-07-24T13:39:25.802Z,21.70
2023-07-24T13:41:53.766Z,18.80
2023-07-24T13:44:21.155Z,18.08
2023-07-24T13:46:49.299Z,18.10
2023-07-24T13:49:16.926Z,19.40
2023-07-24T13:51:47.599Z,19.48
2023-07-24T13:54:15.432Z,20.27
2023-07-24T13:56:42.854Z,19.80
2023-07-24T13:59:13.131Z,21.33
2023-07-24T14:01:49.330Z,18.33
2023-07-24T14:04:16.782Z,15.40
2023-07-24T14:06:46.535Z,16.08
2023-07-24T14:09:14.056Z,20.75
2023-07-24T14:11:41.499Z,21.35
2023-07-24T14:14:09.251Z,21.07
2023-07-24T14:16:38.950Z,15.85
2023-07-24T14:19:08.654Z,18.63
2023-07-24T14:21:36.122Z,18.20
2023-07-24T14:24:03.938Z,16.63
2023-07-24T14:26:31.348Z,15.07
2023-07-24T14:28:58.678Z,17.42
2023-07-24T14:31:26.599Z,16.83
2023-07-24T14:33:54.121Z,16.45
2023-07-24T14:36:21.530Z,16.90
2023-07-24T14:38:49.001Z,19.27
2023-07-24T14:41:16.922Z,17.42
2023-07-24T14:43:44.329Z,19.13
2023-07-24T14:46:11.721Z,16.92
2023-07-24T14:48:41.918Z,18.98
2023-07-24T14:51:09.280Z,18.73
2023-07-24T14:53:38.136Z,16.63
2023-07-24T14:56:09.981Z,18.00
2023-07-24T14:58:37.715Z,16.30
2023-07-24T15:01:05.185Z,15.77
2023-07-24T15:03:32.513Z,17.80
2023-07-24T15:06:07.100Z,16.08
2023-07-24T15:08:35.138Z,16.75
2023-07-24T15:11:04.030Z,15.10
2023-07-24T15:13:35.914Z,15.70
2023-07-24T15:16:09.003Z,16.97
2023-07-24T15:18:36.698Z,16.35
2023-07-24T15:21:04.090Z,18.10
2023-07-24T15:23:31.935Z,16.90
2023-07-24T15:25:59.848Z,16.55
2023-07-24T15:28:27.484Z,18.73
2023-07-24T15:30:55.226Z,20.35
2023-07-24T15:33:22.673Z,18.27
2023-07-24T15:35:50.793Z,17.60
2023-07-24T15:38:18.229Z,16.80
2023-07-24T15:40:45.654Z,22.17
2023-07-24T15:43:13.164Z,20.42
2023-07-24T15:45:40.728Z,19.65
2023-07-24T15:48:08.186Z,18.35
2023-07-24T15:50:35.989Z,19.77
2023-07-24T15:53:03.433Z,18.80
2023-07-24T15:55:31.275Z,18.02
2023-07-24T15:58:02.312Z,19.08
2023-07-24T16:00:29.718Z,18.30
2023-07-24T16:02:57.740Z,19.48
2023-07-24T16:05:25.190Z,19.03
2023-07-24T16:07:53.079Z,19.02
2023-07-24T16:10:22.692Z,19.83
2023-07-24T16:12:50.227Z,21.00
2023-07-24T16:15:18.216Z,18.98
2023-07-24T16:18:05.990Z,20.60
2023-07-24T16:20:35.631Z,20.80
2023-07-24T16:23:03.089Z,19.77
2023-07-24T16:25:30.377Z,20.45
2023-07-24T16:27:57.741Z,20.02
2023-07-24T16:30:27.775Z,19.80
2023-07-24T16:32:55.399Z,20.33
2023-07-24T16:35:22.940Z,20.85
2023-07-24T16:37:53.991Z,19.85
2023-07-24T16:40:21.614Z,21.85
2023-07-24T16:42:51.611Z,19.43
2023-07-24T16:47:54.413Z,19.02
2023-07-24T16:50:21.948Z,22.15
2023-07-24T16:52:49.332Z,18.27
2023-07-24T16:55:16.783Z,21.50
2023-07-24T16:57:45.338Z,23.70
2023-07-24T17:00:13.421Z,20.40
2023-07-24T17:02:41.388Z,20.90
2023-07-24T17:05:09.164Z,22.02
2023-07-24T17:07:36.572Z,23.33
2023-07-24T17:10:04.299Z,23.65
2023-07-24T17:12:32.072Z,21.85
2023-07-24T17:14:59.475Z,20.73
2023-07-24T17:17:27.980Z,23.13
2023-07-24T17:19:55.916Z,20.00
2023-07-24T17:22:23.554Z,19.95
2023-07-24T17:24:51.306Z,21.75
2023-07-24T17:27:22.581Z,22.60
2023-07-24T17:29:50.101Z,23.00
2023-07-24T17:32:23.168Z,20.60
2023-07-24T17:34:50.578Z,25.80
2023-07-24T17:37:28.370Z,24.77
2023-07-24T17:40:07.994Z,21.08
2023-07-24T17:42:37.904Z,21.67
2023-07-24T17:45:06.251Z,21.27
2023-07-24T17:47:34.024Z,23.33
2023-07-24T17:50:07.734Z,25.27
2023-07-24T17:52:36.465Z,21.45
2023-07-24T17:55:25.578Z,27.65
2023-07-24T17:57:54.440Z,23.63
2023-07-24T18:00:23.091Z,23.38
2023-07-24T18:02:51.443Z,22.88
2023-07-24T18:05:19.181Z,22.77
2023-07-24T18:07:47.617Z,23.55
2023-07-24T18:10:16.548Z,22.50
2023-07-24T18:12:45.974Z,24.77
2023-07-24T18:15:13.424Z,26.05
2023-07-24T18:17:40.824Z,26.92
2023-07-24T18:20:09.726Z,22.45
2023-07-24T18:22:37.140Z,22.33
2023-07-24T18:25:04.771Z,23.15
2023-07-24T18:27:32.435Z,21.15
2023-07-24T18:29:59.736Z,27.05
2023-07-24T18:32:27.171Z,22.42
2023-07-24T18:34:54.543Z,26.00
2023-07-24T18:37:22.018Z,23.60
2023-07-24T18:39:50.647Z,24.45
2023-07-24T18:42:18.144Z,23.40
2023-07-24T18:44:45.510Z,24.23
2023-07-24T18:47:12.820Z,21.63
2023-07-24T18:49:40.169Z,25.20
2023-07-24T18:52:08.292Z,22.88
2023-07-24T18:54:35.883Z,23.58
2023-07-24T18:57:03.449Z,23.85
2023-07-24T18:59:30.895Z,21.00
2023-07-24T19:01:58.263Z,28.02
2023-07-24T19:04:25.733Z,23.27
2023-07-24T19:06:53.318Z,23.90
2023-07-24T19:09:20.731Z,24.13
2023-07-24T19:11:48.790Z,21.73
2023-07-24T19:14:16.765Z,20.90
2023-07-24T19:16:44.562Z,21.80
2023-07-24T19:19:11.973Z,23.88
2023-07-24T19:21:39.272Z,21.75
2023-07-24T19:24:07.659Z,21.73
2023-07-24T19:26:35.081Z,26.05
2023-07-24T19:29:02.469Z,25.35
2023-07-24T19:31:30.359Z,24.70
2023-07-24T19:33:58.026Z,23.58
2023-07-24T19:36:25.501Z,26.33
2023-07-24T19:38:52.825Z,21.60
2023-07-24T19:41:20.211Z,22.75
2023-07-24T19:43:47.664Z,24.95
2023-07-24T19:46:15.739Z,22.83
2023-07-24T19:48:43.463Z,22.47
2023-07-24T19:51:11.116Z,23.30
2023-07-24T19:53:38.927Z,22.48
2023-07-24T19:56:06.435Z,21.65
2023-07-24T19:58:37.004Z,22.95
2023-07-24T20:01:05.219Z,22.73
2023-07-24T20:03:32.793Z,21.85
2023-07-24T20:06:04.246Z,22.33
2023-07-24T20:08:37.244Z,21.92
2023-07-24T20:11:06.996Z,22.48
2023-07-24T20:13:34.847Z,22.43
2023-07-24T20:16:02.418Z,21.05
2023-07-24T20:18:29.969Z,24.73
2023-07-24T20:20:57.675Z,25.98
2023-07-24T20:23:25.191Z,23.00
2023-07-24T20:25:52.655Z,26.93
2023-07-24T20:28:21.645Z,22.67
2023-07-24T20:30:49.278Z,22.80
2023-07-24T20:33:16.921Z,20.50
2023-07-24T20:35:47.728Z,24.15
2023-07-24T20:38:28.390Z,22.90
2023-07-24T20:40:59.287Z,22.00
2023-07-24T20:43:26.977Z,20.63
2023-07-24T20:45:54.833Z,24.48
2023-07-24T20:48:23.038Z,25.50
2023-07-24T20:50:50.485Z,24.60
2023-07-24T20:53:17.852Z,24.33
2023-07-24T20:55:45.185Z,21.67
2023-07-24T20:58:12.494Z,23.35
2023-07-24T21:00:43.242Z,23.38
2023-07-24T21:03:11.034Z,21.80
2023-07-24T21:05:38.673Z,24.02
2023-07-24T21:08:06.602Z,23.88
2023-07-24T21:10:34.072Z,22.42
2023-07-24T21:13:01.572Z,23.48
2023-07-24T21:15:28.952Z,22.23
2023-07-24T21:17:56.348Z,21.63
2023-07-24T21:20:24.029Z,21.10
2023-07-24T21:22:51.391Z,23.83
2023-07-24T21:25:19.488Z,20.77
2023-07-24T21:27:46.838Z,26.77
2023-07-24T21:30:14.343Z,23.75
2023-07-24T21:32:41.808Z,24.30
2023-07-24T21:35:10.875Z,19.67
2023-07-24T21:37:40.853Z,19.17
2023-07-24T21:40:09.326Z,22.77
2023-07-24T21:42:36.659Z,20.30
2023-07-24T21:45:04.299Z,21.05
2023-07-24T21:47:31.763Z,23.48
2023-07-24T21:49:59.527Z,19.80
2023-07-24T21:52:27.237Z,19.57
2023-07-24T21:54:54.550Z,18.98
2023-07-24T21:57:22.735Z,22.48
2023-07-24T21:59:50.319Z,18.35
2023-07-24T22:02:17.688Z,23.00
2023-07-24T22:04:45.094Z,19.37
2023-07-24T22:07:12.456Z,23.42
2023-07-24T22:09:39.812Z,16.88
2023-07-24T22:12:08.406Z,18.73
2023-07-24T22:14:35.925Z,20.35
2023-07-24T22:17:03.475Z,22.07
2023-07-24T22:19:31.027Z,19.40
2023-07-24T22:21:58.490Z,20.40
2023-07-24T22:24:25.915Z,18.70
2023-07-24T22:26:53.524Z,19.40
2023-07-24T22:29:20.967Z,19.07
2023-07-24T22:31:49.092Z,17.27
2023-07-24T22:34:16.789Z,17.77
2023-07-24T22:36:44.754Z,19.33
2023-07-24T22:39:12.088Z,19.77
2023-07-24T22:41:39.652Z,20.00
2023-07-24T22:44:07.563Z,19.20
2023-07-24T22:46:35.024Z,20.45
2023-07-24T22:49:03.632Z,19.17
2023-07-24T22:51:31.341Z,18.90
2023-07-24T22:53:59.154Z,19.00
2023-07-24T22:56:28.433Z,18.60
2023-07-24T22:59:07.891Z,15.65
2023-07-24T23:01:35.479Z,20.08
2023-07-24T23:04:03.041Z,15.88
2023-07-24T23:06:30.383Z,16.93
2023-07-24T23:08:57.827Z,17.17
2023-07-24T23:11:25.203Z,18.02
2023-07-24T23:13:53.498Z,15.43
2023-07-24T23:16:20.991Z,16.92
2023-07-24T23:18:48.410Z,17.53
2023-07-24T23:21:15.723Z,16.13
2023-07-24T23:23:43.109Z,19.08
2023-07-24T23:26:10.804Z,18.52
2023-07-24T23:28:38.179Z,21.27
2023-07-24T23:31:06.117Z,18.03
2023-07-24T23:33:34.539Z,22.88
2023-07-24T23:36:02.627Z,17.75
2023-07-24T23:38:30.342Z,17.85
2023-07-24T23:41:01.106Z,17.20
2023-07-24T23:43:28.491Z,18.00
2023-07-24T23:45:55.808Z,17.17
2023-07-24T23:48:24.407Z,17.80
2023-07-24T23:50:56.134Z,15.60
2023-07-24T23:53:23.834Z,19.20
2023-07-24T23:55:54.621Z,19.27
2023-07-24T23:58:22.008Z,20.83
